sensor_id;sensor_type;location;lat;lon;timestamp;temperature;humidity
11214;DHT22;5664;48.606;13.456;2023-03-04T00:01:32;18.90;74.90
11214;DHT22;5664;48.606;13.456;2023-03-04T00:03:57;19.00;75.00
11214;DHT22;5664;48.606;13.456;2023-03-04T00:06:23;18.90;74.90
11214;DHT22;5664;48.606;13.456;2023-03-04T00:08:48;18.90;74.90
11214;DHT22;5664;48.606;13.456;2023-03-04T00:11:14;18.80;74.90
11214;DHT22;5664;48.606;13.456;2023-03-04T00:13:39;19.00;75.00
11214;DHT22;5664;48.606;13.456;2023-03-04T00:16:05;18.80;74.90
11214;DHT22;5664;48.606;13.456;2023-03-04T00:18:30;18.80;75.00
11214;DHT22;5664;48.606;13.456;2023-03-04T00:20:56;18.80;75.00
11214;DHT22;5664;48.606;13.456;2023-03-04T00:23:21;18.80;74.90
11214;DHT22;5664;48.606;13.456;2023-03-04T00:25:47;18.90;75.00
11214;DHT22;5664;48.606;13.456;2023-03-04T00:28:12;18.80;74.90
11214;DHT22;5664;48.606;13.456;2023-03-04T00:30:37;18.80;74.90
11214;DHT22;5664;48.606;13.456;2023-03-04T00:33:03;18.80;75.00
11214;DHT22;5664;48.606;13.456;2023-03-04T00:35:28;18.80;75.00
11214;DHT22;5664;48.606;13.456;2023-03-04T00:37:54;18.80;74.90
11214;DHT22;5664;48.606;13.456;2023-03-04T00:40:19;18.80;74.80
11214;DHT22;5664;48.606;13.456;2023-03-04T00:42:45;18.80;74.80
11214;DHT22;5664;48.606;13.456;2023-03-04T00:45:10;18.80;74.80
11214;DHT22;5664;48.606;13.456;2023-03-04T00:47:36;18.80;74.90
11214;DHT22;5664;48.606;13.456;2023-03-04T00:50:01;18.90;74.90
11214;DHT22;5664;48.606;13.456;2023-03-04T00:52:27;18.80;74.80
11214;DHT22;5664;48.606;13.456;2023-03-04T00:54:52;18.80;74.80
11214;DHT22;5664;48.606;13.456;2023-03-04T00:57:17;18.80;77.30
11214;DHT22;5664;48.606;13.456;2023-03-04T00:59:43;18.80;74.80
11214;DHT22;5664;48.606;13.456;2023-03-04T01:02:10;18.80;74.80
11214;DHT22;5664;48.606;13.456;2023-03-04T01:04:35;18.90;74.90
11214;DHT22;5664;48.606;13.456;2023-03-04T01:07:01;18.70;74.70
11214;DHT22;5664;48.606;13.456;2023-03-04T01:09:27;18.80;74.70
11214;DHT22;5664;48.606;13.456;2023-03-04T01:11:52;18.80;74.70
11214;DHT22;5664;48.606;13.456;2023-03-04T01:14:17;18.80;77.20
11214;DHT22;5664;48.606;13.456;2023-03-04T01:16:43;18.80;74.60
11214;DHT22;5664;48.606;13.456;2023-03-04T01:19:09;18.80;74.70
11214;DHT22;5664;48.606;13.456;2023-03-04T01:21:34;18.80;74.60
11214;DHT22;5664;48.606;13.456;2023-03-04T01:24:00;18.70;74.50
11214;DHT22;5664;48.606;13.456;2023-03-04T01:26:25;18.80;74.60
11214;DHT22;5664;48.606;13.456;2023-03-04T01:28:51;18.80;74.60
11214;DHT22;5664;48.606;13.456;2023-03-04T01:31:16;18.80;74.70
11214;DHT22;5664;48.606;13.456;2023-03-04T01:33:42;18.80;74.50
11214;DHT22;5664;48.606;13.456;2023-03-04T01:36:07;18.90;74.60
11214;DHT22;5664;48.606;13.456;2023-03-04T01:38:32;18.80;74.60
11214;DHT22;5664;48.606;13.456;2023-03-04T01:40:58;18.80;74.60
11214;DHT22;5664;48.606;13.456;2023-03-04T01:43:24;18.80;74.60
11214;DHT22;5664;48.606;13.456;2023-03-04T01:45:51;18.80;74.40
11214;DHT22;5664;48.606;13.456;2023-03-04T01:48:18;18.80;74.70
11214;DHT22;5664;48.606;13.456;2023-03-04T01:50:43;18.80;74.50
11214;DHT22;5664;48.606;13.456;2023-03-04T01:53:14;18.80;74.50
11214;DHT22;5664;48.606;13.456;2023-03-04T01:55:41;18.80;74.50
11214;DHT22;5664;48.606;13.456;2023-03-04T01:58:08;18.80;74.50
11214;DHT22;5664;48.606;13.456;2023-03-04T02:00:34;18.90;74.50
11214;DHT22;5664;48.606;13.456;2023-03-04T02:03:03;18.80;74.50
11214;DHT22;5664;48.606;13.456;2023-03-04T02:05:31;18.80;74.40
11214;DHT22;5664;48.606;13.456;2023-03-04T02:07:56;18.80;74.70
11214;DHT22;5664;48.606;13.456;2023-03-04T02:10:23;18.80;74.40
11214;DHT22;5664;48.606;13.456;2023-03-04T02:12:49;18.70;74.60
11214;DHT22;5664;48.606;13.456;2023-03-04T02:15:15;18.70;74.40
11214;DHT22;5664;48.606;13.456;2023-03-04T02:17:40;18.80;74.40
11214;DHT22;5664;48.606;13.456;2023-03-04T02:22:56;18.70;74.20
11214;DHT22;5664;48.606;13.456;2023-03-04T02:25:30;18.80;74.30
11214;DHT22;5664;48.606;13.456;2023-03-04T02:27:57;18.70;74.20
11214;DHT22;5664;48.606;13.456;2023-03-04T02:30:23;18.70;74.30
11214;DHT22;5664;48.606;13.456;2023-03-04T02:32:50;18.80;74.30
11214;DHT22;5664;48.606;13.456;2023-03-04T02:35:16;18.80;74.20
11214;DHT22;5664;48.606;13.456;2023-03-04T02:37:42;18.70;74.20
11214;DHT22;5664;48.606;13.456;2023-03-04T02:40:26;18.80;74.30
11214;DHT22;5664;48.606;13.456;2023-03-04T02:42:53;18.70;74.10
11214;DHT22;5664;48.606;13.456;2023-03-04T02:45:35;18.80;74.30
11214;DHT22;5664;48.606;13.456;2023-03-04T02:48:01;18.70;74.10
11214;DHT22;5664;48.606;13.456;2023-03-04T02:50:27;18.80;74.20
11214;DHT22;5664;48.606;13.456;2023-03-04T02:52:54;18.80;74.20
11214;DHT22;5664;48.606;13.456;2023-03-04T02:55:19;18.80;74.30
11214;DHT22;5664;48.606;13.456;2023-03-04T02:57:44;18.80;74.30
11214;DHT22;5664;48.606;13.456;2023-03-04T03:00:10;19.00;74.40
11214;DHT22;5664;48.606;13.456;2023-03-04T03:02:36;18.70;74.10
11214;DHT22;5664;48.606;13.456;2023-03-04T03:05:01;18.80;74.20
11214;DHT22;5664;48.606;13.456;2023-03-04T03:07:27;18.80;74.20
11214;DHT22;5664;48.606;13.456;2023-03-04T03:09:52;18.80;74.20
11214;DHT22;5664;48.606;13.456;2023-03-04T03:12:18;18.80;74.20
11214;DHT22;5664;48.606;13.456;2023-03-04T03:14:43;18.90;74.20
11214;DHT22;5664;48.606;13.456;2023-03-04T03:17:09;18.80;74.30
11214;DHT22;5664;48.606;13.456;2023-03-04T03:19:34;18.80;74.40
11214;DHT22;5664;48.606;13.456;2023-03-04T03:22:00;18.80;74.30
11214;DHT22;5664;48.606;13.456;2023-03-04T03:24:25;18.90;74.20
11214;DHT22;5664;48.606;13.456;2023-03-04T03:26:51;18.80;74.20
11214;DHT22;5664;48.606;13.456;2023-03-04T03:29:16;18.80;74.20
11214;DHT22;5664;48.606;13.456;2023-03-04T03:31:42;18.80;74.10
11214;DHT22;5664;48.606;13.456;2023-03-04T03:34:07;18.80;74.10
11214;DHT22;5664;48.606;13.456;2023-03-04T03:36:32;18.80;74.10
11214;DHT22;5664;48.606;13.456;2023-03-04T03:38:58;18.80;74.10
11214;DHT22;5664;48.606;13.456;2023-03-04T03:41:23;19.00;74.30
11214;DHT22;5664;48.606;13.456;2023-03-04T03:43:49;18.80;74.10
11214;DHT22;5664;48.606;13.456;2023-03-04T03:46:14;18.90;74.10
11214;DHT22;5664;48.606;13.456;2023-03-04T03:48:40;18.80;74.00
11214;DHT22;5664;48.606;13.456;2023-03-04T03:51:05;18.90;74.10
11214;DHT22;5664;48.606;13.456;2023-03-04T03:53:31;18.80;74.10
11214;DHT22;5664;48.606;13.456;2023-03-04T03:55:56;18.80;74.00
11214;DHT22;5664;48.606;13.456;2023-03-04T03:58:23;18.80;74.00
11214;DHT22;5664;48.606;13.456;2023-03-04T04:00:48;18.80;74.80
11214;DHT22;5664;48.606;13.456;2023-03-04T04:03:14;18.80;74.00
11214;DHT22;5664;48.606;13.456;2023-03-04T04:05:40;18.80;73.90
11214;DHT22;5664;48.606;13.456;2023-03-04T04:08:05;18.80;73.90
11214;DHT22;5664;48.606;13.456;2023-03-04T04:10:31;18.80;73.90
11214;DHT22;5664;48.606;13.456;2023-03-04T04:12:56;18.80;73.90
11214;DHT22;5664;48.606;13.456;2023-03-04T04:15:22;18.80;73.90
11214;DHT22;5664;48.606;13.456;2023-03-04T04:17:47;18.90;74.90
11214;DHT22;5664;48.606;13.456;2023-03-04T04:20:12;18.80;73.90
11214;DHT22;5664;48.606;13.456;2023-03-04T04:22:38;18.80;73.80
11214;DHT22;5664;48.606;13.456;2023-03-04T04:25:03;18.90;74.70
11214;DHT22;5664;48.606;13.456;2023-03-04T04:27:29;18.80;73.80
11214;DHT22;5664;48.606;13.456;2023-03-04T04:29:54;18.80;74.00
11214;DHT22;5664;48.606;13.456;2023-03-04T04:32:20;18.80;73.90
11214;DHT22;5664;48.606;13.456;2023-03-04T04:34:45;18.90;73.90
11214;DHT22;5664;48.606;13.456;2023-03-04T04:37:11;19.00;73.90
11214;DHT22;5664;48.606;13.456;2023-03-04T04:39:36;18.80;73.80
11214;DHT22;5664;48.606;13.456;2023-03-04T04:42:02;18.90;73.90
11214;DHT22;5664;48.606;13.456;2023-03-04T04:44:27;18.80;73.80
11214;DHT22;5664;48.606;13.456;2023-03-04T04:46:53;18.90;73.80
11214;DHT22;5664;48.606;13.456;2023-03-04T04:49:18;18.80;73.80
11214;DHT22;5664;48.606;13.456;2023-03-04T04:51:44;18.70;73.80
11214;DHT22;5664;48.606;13.456;2023-03-04T04:54:09;18.70;73.80
11214;DHT22;5664;48.606;13.456;2023-03-04T04:56:35;18.80;73.80
11214;DHT22;5664;48.606;13.456;2023-03-04T04:59:02;18.80;73.90
11214;DHT22;5664;48.606;13.456;2023-03-04T05:01:28;18.70;73.80
11214;DHT22;5664;48.606;13.456;2023-03-04T05:03:54;18.70;73.90
11214;DHT22;5664;48.606;13.456;2023-03-04T05:06:20;18.80;74.00
11214;DHT22;5664;48.606;13.456;2023-03-04T05:08:46;18.70;73.90
11214;DHT22;5664;48.606;13.456;2023-03-04T05:11:11;18.60;73.90
11214;DHT22;5664;48.606;13.456;2023-03-04T05:13:37;18.80;74.30
11214;DHT22;5664;48.606;13.456;2023-03-04T05:16:02;18.60;74.00
11214;DHT22;5664;48.606;13.456;2023-03-04T05:18:28;18.60;73.90
11214;DHT22;5664;48.606;13.456;2023-03-04T05:20:57;18.60;74.00
11214;DHT22;5664;48.606;13.456;2023-03-04T05:23:23;18.60;74.00
11214;DHT22;5664;48.606;13.456;2023-03-04T05:25:49;18.50;74.00
11214;DHT22;5664;48.606;13.456;2023-03-04T05:28:15;18.50;74.10
11214;DHT22;5664;48.606;13.456;2023-03-04T05:30:41;18.60;74.10
11214;DHT22;5664;48.606;13.456;2023-03-04T05:33:07;18.50;74.00
11214;DHT22;5664;48.606;13.456;2023-03-04T05:35:34;18.60;74.10
11214;DHT22;5664;48.606;13.456;2023-03-04T05:38:00;18.50;74.10
11214;DHT22;5664;48.606;13.456;2023-03-04T05:40:25;18.60;74.10
11214;DHT22;5664;48.606;13.456;2023-03-04T05:42:51;18.60;74.10
11214;DHT22;5664;48.606;13.456;2023-03-04T05:45:16;18.60;76.60
11214;DHT22;5664;48.606;13.456;2023-03-04T05:47:42;18.50;74.00
11214;DHT22;5664;48.606;13.456;2023-03-04T05:50:07;18.60;74.00
11214;DHT22;5664;48.606;13.456;2023-03-04T05:52:33;18.50;74.00
11214;DHT22;5664;48.606;13.456;2023-03-04T05:54:58;18.50;74.00
11214;DHT22;5664;48.606;13.456;2023-03-04T05:57:24;18.60;74.10
11214;DHT22;5664;48.606;13.456;2023-03-04T05:59:49;18.50;74.10
11214;DHT22;5664;48.606;13.456;2023-03-04T06:02:15;18.60;74.10
11214;DHT22;5664;48.606;13.456;2023-03-04T06:04:40;18.50;74.10
11214;DHT22;5664;48.606;13.456;2023-03-04T06:07:06;18.50;74.10
11214;DHT22;5664;48.606;13.456;2023-03-04T06:09:31;18.50;74.10
11214;DHT22;5664;48.606;13.456;2023-03-04T06:11:57;18.50;74.10
11214;DHT22;5664;48.606;13.456;2023-03-04T06:14:22;18.60;74.10
11214;DHT22;5664;48.606;13.456;2023-03-04T06:16:48;18.50;74.10
11214;DHT22;5664;48.606;13.456;2023-03-04T06:19:13;18.40;74.20
11214;DHT22;5664;48.606;13.456;2023-03-04T06:21:39;18.50;74.30
11214;DHT22;5664;48.606;13.456;2023-03-04T06:24:04;18.40;74.10
11214;DHT22;5664;48.606;13.456;2023-03-04T06:26:30;18.40;74.30
11214;DHT22;5664;48.606;13.456;2023-03-04T06:28:55;18.40;74.20
11214;DHT22;5664;48.606;13.456;2023-03-04T06:31:21;18.40;74.20
11214;DHT22;5664;48.606;13.456;2023-03-04T06:33:47;18.40;76.70
11214;DHT22;5664;48.606;13.456;2023-03-04T06:36:12;18.40;74.20
11214;DHT22;5664;48.606;13.456;2023-03-04T06:38:38;18.40;74.30
11214;DHT22;5664;48.606;13.456;2023-03-04T06:41:08;18.40;74.20
11214;DHT22;5664;48.606;13.456;2023-03-04T06:43:33;18.40;74.10
11214;DHT22;5664;48.606;13.456;2023-03-04T06:45:59;18.40;74.30
11214;DHT22;5664;48.606;13.456;2023-03-04T06:48:24;18.50;74.40
11214;DHT22;5664;48.606;13.456;2023-03-04T06:50:50;18.40;74.30
11214;DHT22;5664;48.606;13.456;2023-03-04T06:53:15;18.40;74.40
11214;DHT22;5664;48.606;13.456;2023-03-04T06:55:41;18.40;74.30
11214;DHT22;5664;48.606;13.456;2023-03-04T06:58:06;18.30;74.30
11214;DHT22;5664;48.606;13.456;2023-03-04T07:00:32;18.40;74.40
11214;DHT22;5664;48.606;13.456;2023-03-04T07:02:57;18.30;74.30
11214;DHT22;5664;48.606;13.456;2023-03-04T07:05:23;18.30;74.30
11214;DHT22;5664;48.606;13.456;2023-03-04T07:07:48;18.20;74.50
11214;DHT22;5664;48.606;13.456;2023-03-04T07:10:15;18.30;74.50
11214;DHT22;5664;48.606;13.456;2023-03-04T07:12:41;18.30;74.50
11214;DHT22;5664;48.606;13.456;2023-03-04T07:15:07;18.40;74.60
11214;DHT22;5664;48.606;13.456;2023-03-04T07:17:33;18.30;74.50
11214;DHT22;5664;48.606;13.456;2023-03-04T07:19:59;18.40;74.70
11214;DHT22;5664;48.606;13.456;2023-03-04T07:22:24;18.30;74.70
11214;DHT22;5664;48.606;13.456;2023-03-04T07:24:50;18.30;74.70
11214;DHT22;5664;48.606;13.456;2023-03-04T07:27:15;18.30;74.70
11214;DHT22;5664;48.606;13.456;2023-03-04T07:29:41;18.20;74.80
11214;DHT22;5664;48.606;13.456;2023-03-04T07:32:06;18.30;75.60
11214;DHT22;5664;48.606;13.456;2023-03-04T07:34:32;18.20;74.90
11214;DHT22;5664;48.606;13.456;2023-03-04T07:36:58;18.20;74.90
11214;DHT22;5664;48.606;13.456;2023-03-04T07:39:23;18.20;74.90
11214;DHT22;5664;48.606;13.456;2023-03-04T07:41:49;18.20;74.90
11214;DHT22;5664;48.606;13.456;2023-03-04T07:44:14;18.20;75.10
11214;DHT22;5664;48.606;13.456;2023-03-04T07:46:40;18.20;75.00
11214;DHT22;5664;48.606;13.456;2023-03-04T07:49:05;18.20;74.90
11214;DHT22;5664;48.606;13.456;2023-03-04T07:51:31;18.20;75.00
11214;DHT22;5664;48.606;13.456;2023-03-04T07:53:57;18.40;75.10
11214;DHT22;5664;48.606;13.456;2023-03-04T07:56:24;18.20;74.90
11214;DHT22;5664;48.606;13.456;2023-03-04T07:58:50;18.20;74.90
11214;DHT22;5664;48.606;13.456;2023-03-04T08:01:19;18.40;75.10
11214;DHT22;5664;48.606;13.456;2023-03-04T08:03:45;18.20;74.90
11214;DHT22;5664;48.606;13.456;2023-03-04T08:06:11;18.20;75.00
11214;DHT22;5664;48.606;13.456;2023-03-04T08:08:37;18.30;75.10
11214;DHT22;5664;48.606;13.456;2023-03-04T08:11:03;18.30;75.20
11214;DHT22;5664;48.606;13.456;2023-03-04T08:13:29;18.20;75.10
11214;DHT22;5664;48.606;13.456;2023-03-04T08:15:55;18.20;75.20
11214;DHT22;5664;48.606;13.456;2023-03-04T08:18:20;18.20;75.10
11214;DHT22;5664;48.606;13.456;2023-03-04T08:20:46;18.00;77.00
11214;DHT22;5664;48.606;13.456;2023-03-04T08:23:11;18.30;75.90
11214;DHT22;5664;48.606;13.456;2023-03-04T08:25:38;18.20;74.20
11214;DHT22;5664;48.606;13.456;2023-03-04T08:28:04;18.30;73.30
11214;DHT22;5664;48.606;13.456;2023-03-04T08:30:30;18.20;73.30
11214;DHT22;5664;48.606;13.456;2023-03-04T08:32:55;18.20;73.80
11214;DHT22;5664;48.606;13.456;2023-03-04T08:35:21;18.30;74.20
11214;DHT22;5664;48.606;13.456;2023-03-04T08:37:46;18.20;74.40
11214;DHT22;5664;48.606;13.456;2023-03-04T08:40:12;18.20;74.50
11214;DHT22;5664;48.606;13.456;2023-03-04T08:42:37;18.20;74.60
11214;DHT22;5664;48.606;13.456;2023-03-04T08:45:03;18.20;74.70
11214;DHT22;5664;48.606;13.456;2023-03-04T08:47:28;18.20;74.70
11214;DHT22;5664;48.606;13.456;2023-03-04T08:49:54;18.30;74.80
11214;DHT22;5664;48.606;13.456;2023-03-04T08:52:20;18.30;74.70
11214;DHT22;5664;48.606;13.456;2023-03-04T08:54:46;18.20;74.60
11214;DHT22;5664;48.606;13.456;2023-03-04T08:57:11;18.30;74.80
11214;DHT22;5664;48.606;13.456;2023-03-04T08:59:37;18.30;74.80
11214;DHT22;5664;48.606;13.456;2023-03-04T09:02:02;18.40;74.90
11214;DHT22;5664;48.606;13.456;2023-03-04T09:04:27;18.50;74.90
11214;DHT22;5664;48.606;13.456;2023-03-04T09:06:53;18.30;74.80
11214;DHT22;5664;48.606;13.456;2023-03-04T09:09:18;18.30;74.70
11214;DHT22;5664;48.606;13.456;2023-03-04T09:11:44;18.30;74.80
11214;DHT22;5664;48.606;13.456;2023-03-04T09:14:09;18.20;74.60
11214;DHT22;5664;48.606;13.456;2023-03-04T09:16:35;18.40;74.90
11214;DHT22;5664;48.606;13.456;2023-03-04T09:19:00;18.20;74.60
11214;DHT22;5664;48.606;13.456;2023-03-04T09:21:26;18.30;74.70
11214;DHT22;5664;48.606;13.456;2023-03-04T09:23:51;18.30;74.70
11214;DHT22;5664;48.606;13.456;2023-03-04T09:26:21;18.30;77.00
11214;DHT22;5664;48.606;13.456;2023-03-04T09:28:54;18.30;74.60
11214;DHT22;5664;48.606;13.456;2023-03-04T09:31:20;18.20;74.60
11214;DHT22;5664;48.606;13.456;2023-03-04T09:33:46;18.40;74.80
11214;DHT22;5664;48.606;13.456;2023-03-04T09:36:12;18.30;74.70
11214;DHT22;5664;48.606;13.456;2023-03-04T09:38:38;18.20;74.60
11214;DHT22;5664;48.606;13.456;2023-03-04T09:41:09;18.20;74.60
11214;DHT22;5664;48.606;13.456;2023-03-04T09:43:37;18.20;74.50
11214;DHT22;5664;48.606;13.456;2023-03-04T09:46:04;18.20;74.70
11214;DHT22;5664;48.606;13.456;2023-03-04T09:48:38;18.20;74.60
11214;DHT22;5664;48.606;13.456;2023-03-04T09:53:53;18.20;74.60
11214;DHT22;5664;48.606;13.456;2023-03-04T09:56:20;18.20;74.70
11214;DHT22;5664;48.606;13.456;2023-03-04T09:58:53;18.20;74.70
11214;DHT22;5664;48.606;13.456;2023-03-04T10:04:25;18.20;74.60
11214;DHT22;5664;48.606;13.456;2023-03-04T10:06:42;18.20;74.80
11214;DHT22;5664;48.606;13.456;2023-03-04T10:09:18;18.20;74.80
11214;DHT22;5664;48.606;13.456;2023-03-04T10:11:45;18.20;74.70
11214;DHT22;5664;48.606;13.456;2023-03-04T10:16:48;18.20;75.00
11214;DHT22;5664;48.606;13.456;2023-03-04T10:21:59;18.10;74.80
11214;DHT22;5664;48.606;13.456;2023-03-04T10:24:27;18.10;75.00
11214;DHT22;5664;48.606;13.456;2023-03-04T10:26:59;18.20;74.90
11214;DHT22;5664;48.606;13.456;2023-03-04T10:29:26;18.10;74.80
11214;DHT22;5664;48.606;13.456;2023-03-04T10:31:54;18.20;74.90
11214;DHT22;5664;48.606;13.456;2023-03-04T10:34:20;18.20;75.00
11214;DHT22;5664;48.606;13.456;2023-03-04T10:36:49;18.30;75.10
11214;DHT22;5664;48.606;13.456;2023-03-04T10:39:20;18.10;75.00
11214;DHT22;5664;48.606;13.456;2023-03-04T10:42:02;18.10;74.90
11214;DHT22;5664;48.606;13.456;2023-03-04T10:44:28;18.10;74.90
11214;DHT22;5664;48.606;13.456;2023-03-04T10:46:55;18.20;75.20
11214;DHT22;5664;48.606;13.456;2023-03-04T10:49:21;18.20;75.10
11214;DHT22;5664;48.606;13.456;2023-03-04T10:56:40;18.10;75.20
11214;DHT22;5664;48.606;13.456;2023-03-04T11:01:55;18.10;75.20
11214;DHT22;5664;48.606;13.456;2023-03-04T11:04:25;18.20;75.30
11214;DHT22;5664;48.606;13.456;2023-03-04T11:06:51;18.00;75.00
11214;DHT22;5664;48.606;13.456;2023-03-04T11:09:21;18.10;75.20
11214;DHT22;5664;48.606;13.456;2023-03-04T11:11:47;18.00;75.00
11214;DHT22;5664;48.606;13.456;2023-03-04T11:16:39;18.00;75.30
11214;DHT22;5664;48.606;13.456;2023-03-04T11:19:12;18.20;75.50
11214;DHT22;5664;48.606;13.456;2023-03-04T11:21:38;18.00;75.20
11214;DHT22;5664;48.606;13.456;2023-03-04T11:24:07;18.00;75.30
11214;DHT22;5664;48.606;13.456;2023-03-04T11:26:42;17.90;75.20
11214;DHT22;5664;48.606;13.456;2023-03-04T11:29:14;17.90;75.20
11214;DHT22;5664;48.606;13.456;2023-03-04T11:34:21;17.90;75.20
11214;DHT22;5664;48.606;13.456;2023-03-04T11:39:23;18.00;75.40
11214;DHT22;5664;48.606;13.456;2023-03-04T11:41:53;17.90;76.10
11214;DHT22;5664;48.606;13.456;2023-03-04T11:44:20;17.90;75.30
11214;DHT22;5664;48.606;13.456;2023-03-04T11:49:52;17.90;75.30
11214;DHT22;5664;48.606;13.456;2023-03-04T11:52:23;17.90;75.40
11214;DHT22;5664;48.606;13.456;2023-03-04T12:07:53;17.80;75.30
11214;DHT22;5664;48.606;13.456;2023-03-04T12:13:12;17.80;76.90
11214;DHT22;5664;48.606;13.456;2023-03-04T12:23:40;17.80;75.60
11214;DHT22;5664;48.606;13.456;2023-03-04T12:33:51;17.80;75.60
11214;DHT22;5664;48.606;13.456;2023-03-04T12:38:56;17.70;75.40
11214;DHT22;5664;48.606;13.456;2023-03-04T12:44:12;17.70;75.40
11214;DHT22;5664;48.606;13.456;2023-03-04T12:49:39;17.70;75.60
11214;DHT22;5664;48.606;13.456;2023-03-04T12:54:54;17.70;75.50
11214;DHT22;5664;48.606;13.456;2023-03-04T12:57:28;17.70;78.10
11214;DHT22;5664;48.606;13.456;2023-03-04T13:02:54;17.70;75.60
11214;DHT22;5664;48.606;13.456;2023-03-04T13:10:31;17.70;75.70
11214;DHT22;5664;48.606;13.456;2023-03-04T13:12:57;17.70;75.70
11214;DHT22;5664;48.606;13.456;2023-03-04T13:17:52;17.70;75.80
11214;DHT22;5664;48.606;13.456;2023-03-04T13:20:21;17.70;75.60
11214;DHT22;5664;48.606;13.456;2023-03-04T13:43:37;17.60;75.40
11214;DHT22;5664;48.606;13.456;2023-03-04T13:51:15;17.60;75.60
11214;DHT22;5664;48.606;13.456;2023-03-04T13:53:43;17.80;75.80
11214;DHT22;5664;48.606;13.456;2023-03-04T13:56:28;17.60;75.70
11214;DHT22;5664;48.606;13.456;2023-03-04T14:01:33;17.60;75.70
11214;DHT22;5664;48.606;13.456;2023-03-04T14:03:59;17.60;76.00
11214;DHT22;5664;48.606;13.456;2023-03-04T14:06:26;17.70;76.00
11214;DHT22;5664;48.606;13.456;2023-03-04T14:08:53;17.70;76.10
11214;DHT22;5664;48.606;13.456;2023-03-04T14:13:47;17.50;76.10
11214;DHT22;5664;48.606;13.456;2023-03-04T14:16:17;17.50;76.20
11214;DHT22;5664;48.606;13.456;2023-03-04T14:18:43;17.80;76.40
11214;DHT22;5664;48.606;13.456;2023-03-04T14:21:09;17.50;76.30
11214;DHT22;5664;48.606;13.456;2023-03-04T14:23:38;17.60;76.40
11214;DHT22;5664;48.606;13.456;2023-03-04T14:26:04;17.50;76.50
11214;DHT22;5664;48.606;13.456;2023-03-04T14:28:30;17.50;76.50
11214;DHT22;5664;48.606;13.456;2023-03-04T14:30:55;17.60;76.70
11214;DHT22;5664;48.606;13.456;2023-03-04T14:33:24;17.40;76.50
11214;DHT22;5664;48.606;13.456;2023-03-04T14:35:52;17.40;76.50
11214;DHT22;5664;48.606;13.456;2023-03-04T14:38:28;17.50;76.70
11214;DHT22;5664;48.606;13.456;2023-03-04T14:43:26;17.40;76.70
11214;DHT22;5664;48.606;13.456;2023-03-04T14:45:52;17.60;76.80
11214;DHT22;5664;48.606;13.456;2023-03-04T14:48:20;17.40;76.70
11214;DHT22;5664;48.606;13.456;2023-03-04T14:50:50;17.40;76.50
11214;DHT22;5664;48.606;13.456;2023-03-04T14:53:17;17.40;76.60
11214;DHT22;5664;48.606;13.456;2023-03-04T14:55:59;17.50;76.70
11214;DHT22;5664;48.606;13.456;2023-03-04T14:58:26;17.40;76.60
11214;DHT22;5664;48.606;13.456;2023-03-04T15:01:06;17.50;77.00
11214;DHT22;5664;48.606;13.456;2023-03-04T15:03:32;17.30;76.80
11214;DHT22;5664;48.606;13.456;2023-03-04T15:08:54;17.40;76.80
11214;DHT22;5664;48.606;13.456;2023-03-04T15:11:25;17.50;77.00
11214;DHT22;5664;48.606;13.456;2023-03-04T15:13:52;17.30;76.80
11214;DHT22;5664;48.606;13.456;2023-03-04T15:16:20;17.50;77.70
11214;DHT22;5664;48.606;13.456;2023-03-04T15:23:44;17.40;76.80
11214;DHT22;5664;48.606;13.456;2023-03-04T15:26:10;17.40;76.70
11214;DHT22;5664;48.606;13.456;2023-03-04T15:28:37;17.40;76.60
11214;DHT22;5664;48.606;13.456;2023-03-04T15:31:03;17.40;76.60
11214;DHT22;5664;48.606;13.456;2023-03-04T15:33:28;17.30;76.50
11214;DHT22;5664;48.606;13.456;2023-03-04T15:35:55;17.30;76.50
11214;DHT22;5664;48.606;13.456;2023-03-04T15:38:21;17.50;76.50
11214;DHT22;5664;48.606;13.456;2023-03-04T15:40:47;17.50;76.50
11214;DHT22;5664;48.606;13.456;2023-03-04T15:43:14;17.60;76.20
11214;DHT22;5664;48.606;13.456;2023-03-04T15:45:40;17.50;75.90
11214;DHT22;5664;48.606;13.456;2023-03-04T15:48:06;17.70;75.70
11214;DHT22;5664;48.606;13.456;2023-03-04T15:50:32;17.70;75.50
11214;DHT22;5664;48.606;13.456;2023-03-04T15:53:00;17.80;75.30
11214;DHT22;5664;48.606;13.456;2023-03-04T15:55:26;17.90;75.10
11214;DHT22;5664;48.606;13.456;2023-03-04T15:57:53;18.10;75.10
11214;DHT22;5664;48.606;13.456;2023-03-04T16:00:19;18.10;75.00
11214;DHT22;5664;48.606;13.456;2023-03-04T16:02:45;18.10;74.70
11214;DHT22;5664;48.606;13.456;2023-03-04T16:05:11;18.20;74.40
11214;DHT22;5664;48.606;13.456;2023-03-04T16:07:37;18.30;74.20
11214;DHT22;5664;48.606;13.456;2023-03-04T16:10:11;18.40;74.10
11214;DHT22;5664;48.606;13.456;2023-03-04T16:12:38;18.40;73.80
11214;DHT22;5664;48.606;13.456;2023-03-04T16:15:08;18.60;73.80
11214;DHT22;5664;48.606;13.456;2023-03-04T16:17:34;18.60;73.60
11214;DHT22;5664;48.606;13.456;2023-03-04T16:20:03;18.60;73.40
11214;DHT22;5664;48.606;13.456;2023-03-04T16:22:29;18.70;73.30
11214;DHT22;5664;48.606;13.456;2023-03-04T16:24:54;18.80;73.20
11214;DHT22;5664;48.606;13.456;2023-03-04T16:27:20;18.80;73.10
11214;DHT22;5664;48.606;13.456;2023-03-04T16:29:46;18.90;73.00
11214;DHT22;5664;48.606;13.456;2023-03-04T16:32:12;18.90;72.90
11214;DHT22;5664;48.606;13.456;2023-03-04T16:34:37;19.00;72.80
11214;DHT22;5664;48.606;13.456;2023-03-04T16:37:04;19.00;72.70
11214;DHT22;5664;48.606;13.456;2023-03-04T16:39:31;19.00;72.70
11214;DHT22;5664;48.606;13.456;2023-03-04T16:41:56;19.10;72.50
11214;DHT22;5664;48.606;13.456;2023-03-04T16:44:22;19.10;72.50
11214;DHT22;5664;48.606;13.456;2023-03-04T16:46:47;19.10;72.40
11214;DHT22;5664;48.606;13.456;2023-03-04T16:49:13;19.10;72.40
11214;DHT22;5664;48.606;13.456;2023-03-04T16:51:39;19.10;72.30
11214;DHT22;5664;48.606;13.456;2023-03-04T16:54:10;19.20;72.40
11214;DHT22;5664;48.606;13.456;2023-03-04T16:56:37;19.10;72.20
11214;DHT22;5664;48.606;13.456;2023-03-04T16:59:02;19.30;72.40
11214;DHT22;5664;48.606;13.456;2023-03-04T17:01:28;19.20;72.30
11214;DHT22;5664;48.606;13.456;2023-03-04T17:03:53;19.20;72.20
11214;DHT22;5664;48.606;13.456;2023-03-04T17:06:19;19.20;72.10
11214;DHT22;5664;48.606;13.456;2023-03-04T17:08:45;19.20;72.10
11214;DHT22;5664;48.606;13.456;2023-03-04T17:11:12;19.20;72.30
11214;DHT22;5664;48.606;13.456;2023-03-04T17:13:41;19.20;72.20
11214;DHT22;5664;48.606;13.456;2023-03-04T17:16:07;19.20;72.10
11214;DHT22;5664;48.606;13.456;2023-03-04T17:18:32;19.30;72.20
11214;DHT22;5664;48.606;13.456;2023-03-04T17:21:04;19.20;72.10
11214;DHT22;5664;48.606;13.456;2023-03-04T17:23:30;19.20;72.10
11214;DHT22;5664;48.606;13.456;2023-03-04T17:25:56;19.30;72.20
11214;DHT22;5664;48.606;13.456;2023-03-04T17:28:22;19.30;72.10
11214;DHT22;5664;48.606;13.456;2023-03-04T17:30:48;19.30;72.10
11214;DHT22;5664;48.606;13.456;2023-03-04T17:33:13;19.30;72.10